Time;durP1;ratioP1;P1;durP2;ratioP2;P2;SDS_P1;SDS_P2;PMS_P1;PMS_P2;Temp;Humidity;BMP_temperature;BMP_pressure;BME280_temperature;BME280_humidity;BME280_pressure;Samples;Min_cycle;Max_cycle;Signal;HPM_P1;HPM_P2
2021/12/12 00:00:33;;;;;;;14.27;7.00;;;3.20;99.90;;;;;;5065434;28;20127;-67
2021/12/12 00:03:10;;;;;;;13.75;7.20;;;3.20;99.90;;;;;;5057226;28;20495;-68
2021/12/12 00:05:42;;;;;;;14.77;6.53;;;3.20;99.90;;;;;;5062223;28;20406;-67
2021/12/12 00:08:09;;;;;;;11.82;6.70;;;3.20;99.90;;;;;;5065058;28;20028;-67
2021/12/12 00:10:38;;;;;;;16.98;7.50;;;3.20;99.90;;;;;;5065934;28;20366;-68
2021/12/12 00:13:10;;;;;;;16.65;7.43;;;3.20;99.90;;;;;;5069808;28;20369;-67
2021/12/12 00:15:36;;;;;;;8.93;6.03;;;3.20;99.90;;;;;;5079051;28;20059;-68
2021/12/12 00:18:03;;;;;;;10.20;5.13;;;3.20;99.90;;;;;;5069374;28;20275;-68
2021/12/12 00:20:30;;;;;;;10.90;5.20;;;3.20;99.90;;;;;;5063692;28;20067;-68
2021/12/12 00:22:59;;;;;;;11.88;4.90;;;3.20;99.90;;;;;;5059367;28;20112;-68
2021/12/12 00:25:29;;;;;;;10.85;5.22;;;3.20;99.90;;;;;;5061696;28;20031;-67
2021/12/12 00:27:54;;;;;;;12.50;5.65;;;3.20;99.90;;;;;;5068206;28;20036;-69
2021/12/12 00:30:20;;;;;;;7.30;4.57;;;3.20;99.90;;;;;;5060774;28;20028;-68
2021/12/12 00:32:46;;;;;;;10.43;4.82;;;3.20;99.90;;;;;;5060761;28;20038;-67
2021/12/12 00:35:14;;;;;;;10.27;5.47;;;3.10;99.90;;;;;;5065766;28;20039;-68
2021/12/12 00:37:41;;;;;;;7.93;4.82;;;3.10;99.90;;;;;;5063303;28;20060;-67
2021/12/12 00:40:23;;;;;;;10.07;4.97;;;3.10;99.90;;;;;;5067186;28;20033;-68
2021/12/12 00:42:50;;;;;;;11.43;5.35;;;3.10;99.90;;;;;;5063370;28;20039;-68
2021/12/12 00:45:17;;;;;;;9.38;4.97;;;3.10;99.90;;;;;;5055082;28;20025;-68
2021/12/12 00:47:44;;;;;;;10.27;5.13;;;3.10;99.90;;;;;;5056505;28;20032;-69
2021/12/12 00:50:23;;;;;;;12.35;5.43;;;3.10;99.90;;;;;;5066484;28;20044;-68
2021/12/12 00:52:51;;;;;;;13.13;5.30;;;3.10;99.90;;;;;;5061945;28;20487;-69
2021/12/12 00:55:17;;;;;;;10.55;5.15;;;3.00;99.90;;;;;;5067114;28;20054;-68
2021/12/12 00:57:50;;;;;;;8.55;4.70;;;3.00;99.90;;;;;;5064394;28;20031;-67
2021/12/12 01:00:18;;;;;;;10.38;5.10;;;3.00;99.90;;;;;;5065180;28;20017;-68
2021/12/12 01:02:43;;;;;;;12.23;5.10;;;3.00;99.90;;;;;;5067396;28;20368;-67
2021/12/12 01:05:12;;;;;;;9.38;5.82;;;2.90;99.90;;;;;;5064223;28;20466;-68
2021/12/12 01:07:41;;;;;;;12.95;5.30;;;2.90;99.90;;;;;;5064008;28;20032;-69
2021/12/12 01:10:24;;;;;;;11.95;4.90;;;2.90;99.90;;;;;;5055867;28;20377;-68
2021/12/12 01:12:50;;;;;;;;;;;2.80;99.90;;;;;;5057552;28;20024;-68
2021/12/12 01:15:39;;;;;;;9.65;4.25;;;2.80;99.90;;;;;;5067708;28;19909;-68
2021/12/12 01:18:09;;;;;;;11.43;5.18;;;2.70;99.90;;;;;;5069073;28;20028;-68
2021/12/12 01:20:45;;;;;;;13.80;4.75;;;2.70;99.90;;;;;;5055902;28;20022;-68
2021/12/12 01:23:16;;;;;;;8.40;4.30;;;2.70;99.90;;;;;;5060592;28;20061;-68
2021/12/12 01:25:47;;;;;;;17.63;4.60;;;2.70;99.90;;;;;;5061256;28;20029;-68
2021/12/12 01:28:20;;;;;;;11.48;4.38;;;2.70;99.90;;;;;;5067701;28;20043;-69
2021/12/12 01:30:46;;;;;;;;;;;2.70;99.90;;;;;;5053619;28;20029;-68
2021/12/12 01:33:21;;;;;;;7.18;4.30;;;2.70;99.90;;;;;;5064080;28;19919;-69
2021/12/12 01:35:47;;;;;;;9.35;3.85;;;2.70;99.90;;;;;;5062088;28;20025;-68
2021/12/12 01:40:59;;;;;;;10.35;4.53;;;2.70;99.90;;;;;;5061129;28;20087;-69
2021/12/12 01:43:49;;;;;;;10.63;5.18;;;2.70;99.90;;;;;;5063932;28;20032;-68
2021/12/12 01:46:29;;;;;;;7.57;4.18;;;2.60;99.90;;;;;;5061227;28;20480;-68
2021/12/12 01:49:03;;;;;;;8.82;4.38;;;2.60;99.90;;;;;;5065227;28;20032;-68
2021/12/12 01:51:29;;;;;;;7.03;4.40;;;2.60;99.90;;;;;;5065641;28;20032;-68
2021/12/12 01:54:00;;;;;;;7.03;4.70;;;2.60;99.90;;;;;;5064645;28;20126;-67
2021/12/12 01:56:39;;;;;;;8.32;4.45;;;2.60;99.90;;;;;;5070182;28;20032;-68
2021/12/12 01:59:07;;;;;;;13.93;4.57;;;2.60;99.90;;;;;;5067319;28;20447;-68
2021/12/12 02:01:41;;;;;;;11.15;5.03;;;2.50;99.90;;;;;;5066503;28;20046;-67
2021/12/12 02:04:14;;;;;;;9.85;4.47;;;2.50;99.90;;;;;;5064422;28;20047;-68
2021/12/12 02:06:43;;;;;;;;;;;2.40;99.90;;;;;;5072736;28;20111;-69
2021/12/12 02:09:10;;;;;;;7.88;4.60;;;2.40;99.90;;;;;;5057322;28;20360;-68
2021/12/12 02:11:37;;;;;;;10.15;5.07;;;2.30;99.90;;;;;;5062848;28;20047;-68
2021/12/12 02:14:10;;;;;;;9.15;5.07;;;2.30;99.90;;;;;;5069390;28;20024;-69
2021/12/12 02:16:42;;;;;;;11.90;5.22;;;2.30;99.90;;;;;;5070482;28;20052;-68
2021/12/12 02:19:09;;;;;;;10.82;5.20;;;2.20;99.90;;;;;;5062639;28;20507;-68
2021/12/12 02:22:05;;;;;;;13.10;5.22;;;2.20;99.90;;;;;;5067229;28;20024;-68
2021/12/12 02:35:25;;;;;;;14.85;5.70;;;2.20;99.90;;;;;;5069628;28;20112;-68
2021/12/12 02:37:55;;;;;;;16.98;6.00;;;2.20;99.90;;;;;;5068402;28;20548;-69
2021/12/12 02:40:30;;;;;;;15.40;5.63;;;2.20;99.90;;;;;;5071035;28;20111;-68
2021/12/12 02:42:56;;;;;;;18.08;6.05;;;2.20;99.90;;;;;;5068151;28;20082;-68
2021/12/12 02:45:24;;;;;;;13.35;5.93;;;2.20;99.90;;;;;;5069837;28;20029;-68
2021/12/12 02:47:57;;;;;;;11.98;5.85;;;2.20;99.90;;;;;;5059151;28;20033;-68
2021/12/12 02:50:32;;;;;;;18.20;6.00;;;2.20;99.90;;;;;;5057537;28;20087;-68
2021/12/12 02:53:07;;;;;;;10.80;5.90;;;2.20;99.90;;;;;;5061436;28;20025;-68
2021/12/12 02:55:38;;;;;;;10.32;5.90;;;2.30;99.90;;;;;;5064805;28;20469;-68
2021/12/12 02:58:06;;;;;;;14.93;6.05;;;2.30;99.90;;;;;;5052862;28;20066;-68
2021/12/12 03:00:36;;;;;;;14.10;5.78;;;2.30;99.90;;;;;;5057620;28;20116;-68
2021/12/12 03:03:02;;;;;;;16.05;6.20;;;2.30;99.90;;;;;;5052931;28;20029;-68
2021/12/12 03:05:32;;;;;;;12.93;5.63;;;2.30;99.90;;;;;;5068946;28;20028;-68
2021/12/12 03:07:58;;;;;;;10.40;5.85;;;2.30;99.90;;;;;;5064431;28;20020;-68
2021/12/12 03:10:34;;;;;;;8.15;5.03;;;2.30;99.90;;;;;;5069454;28;20044;-68
2021/12/12 03:13:00;;;;;;;8.90;5.30;;;2.40;99.90;;;;;;5064479;28;20485;-68
2021/12/12 03:15:31;;;;;;;10.68;5.10;;;2.30;99.90;;;;;;5066465;28;20060;-68
2021/12/12 03:17:59;;;;;;;11.98;4.70;;;2.30;99.90;;;;;;5058458;28;20033;-68
2021/12/12 03:20:32;;;;;;;9.88;4.55;;;2.40;99.90;;;;;;5068457;28;20025;-67
2021/12/12 03:23:07;;;;;;;12.05;4.03;;;2.30;99.90;;;;;;5069093;28;20515;-68
2021/12/12 03:25:36;;;;;;;9.13;3.97;;;2.30;99.90;;;;;;5069545;28;20541;-69
2021/12/12 03:28:04;;;;;;;9.02;3.88;;;2.30;99.90;;;;;;5068882;28;20035;-68
2021/12/12 03:30:29;;;;;;;12.68;3.45;;;2.30;99.90;;;;;;5063002;28;20531;-68
2021/12/12 03:32:55;;;;;;;8.88;3.40;;;2.30;99.90;;;;;;5070500;28;20024;-69
2021/12/12 03:35:21;;;;;;;8.10;3.63;;;2.40;99.90;;;;;;5066421;28;20029;-68
2021/12/12 03:37:47;;;;;;;7.70;2.95;;;2.40;99.90;;;;;;5069869;28;20032;-68
2021/12/12 03:40:27;;;;;;;7.00;3.17;;;2.40;99.90;;;;;;5058544;28;20025;-67
2021/12/12 03:42:56;;;;;;;6.22;3.13;;;2.40;99.90;;;;;;5064223;28;20025;-69
2021/12/12 03:45:22;;;;;;;7.28;3.05;;;2.40;99.90;;;;;;5064912;28;20028;-67
2021/12/12 03:47:56;;;;;;;11.15;3.58;;;2.40;99.90;;;;;;5069654;28;20033;-68
2021/12/12 03:50:26;;;;;;;7.50;3.30;;;2.40;99.90;;;;;;5064262;28;20104;-68
2021/12/12 03:52:53;;;;;;;7.35;2.95;;;2.40;99.90;;;;;;5068993;28;20113;-67
2021/12/12 03:55:20;;;;;;;6.22;3.10;;;2.40;99.90;;;;;;5065543;28;20035;-69
2021/12/12 03:57:48;;;;;;;5.82;2.72;;;2.40;99.90;;;;;;5055804;28;20481;-67
2021/12/12 04:00:24;;;;;;;10.10;3.08;;;2.40;99.90;;;;;;5066936;28;20056;-68
2021/12/12 04:02:50;;;;;;;7.45;3.00;;;2.40;99.90;;;;;;5069366;28;20035;-69
2021/12/12 04:05:16;;;;;;;3.92;2.58;;;2.40;99.90;;;;;;5056111;28;20389;-68
2021/12/12 04:07:42;;;;;;;10.57;3.05;;;2.40;99.90;;;;;;5065255;28;20059;-68
2021/12/12 04:10:12;;;;;;;3.35;2.38;;;2.40;99.90;;;;;;5068699;28;20055;-68
2021/12/12 04:12:38;;;;;;;4.20;2.60;;;2.40;99.90;;;;;;5066411;28;20497;-68
2021/12/12 04:15:05;;;;;;;5.78;2.22;;;2.40;99.90;;;;;;5064138;28;20489;-68
2021/12/12 04:17:31;;;;;;;6.60;2.33;;;2.40;99.90;;;;;;5064272;28;20426;-68
2021/12/12 04:20:06;;;;;;;6.63;2.58;;;2.40;99.90;;;;;;5062195;28;20445;-68
2021/12/12 04:22:33;;;;;;;5.00;2.60;;;2.40;99.90;;;;;;5050514;28;20469;-68
2021/12/12 04:24:59;;;;;;;4.55;2.17;;;2.40;99.90;;;;;;5061716;28;20638;-67
2021/12/12 04:27:25;;;;;;;6.50;2.20;;;2.40;99.90;;;;;;5065942;28;20127;-69
2021/12/12 04:29:53;;;;;;;3.50;2.00;;;2.40;99.90;;;;;;5057148;28;20039;-66
2021/12/12 04:32:27;;;;;;;3.42;1.90;;;2.30;99.90;;;;;;5065075;28;20108;-68
2021/12/12 04:35:09;;;;;;;2.90;1.90;;;2.30;99.90;;;;;;5069320;28;20550;-68
2021/12/12 04:37:36;;;;;;;4.45;2.30;;;2.30;99.90;;;;;;5068447;28;20029;-68
2021/12/12 04:40:03;;;;;;;4.75;2.30;;;2.30;99.90;;;;;;5065488;28;20488;-67
2021/12/12 04:42:32;;;;;;;7.40;2.13;;;2.20;99.90;;;;;;5068659;28;20056;-68
2021/12/12 04:45:25;;;;;;;5.97;2.55;;;2.20;99.90;;;;;;5065309;28;20075;-68
2021/12/12 04:51:03;;;;;;;4.32;2.65;;;2.20;99.90;;;;;;5065857;28;20035;-68
2021/12/12 04:53:54;;;;;;;8.98;2.35;;;2.20;99.90;;;;;;5072827;28;20031;-68
2021/12/12 04:56:26;;;;;;;6.45;2.47;;;2.20;99.90;;;;;;5066496;28;20029;-68
2021/12/12 04:59:11;;;;;;;4.03;2.70;;;2.10;99.90;;;;;;5064653;28;20504;-68
2021/12/12 05:01:59;;;;;;;4.65;2.67;;;2.20;99.90;;;;;;5068841;28;20024;-68
2021/12/12 05:04:31;;;;;;;5.57;2.30;;;2.10;99.90;;;;;;5065546;28;20074;-68
2021/12/12 05:07:11;;;;;;;3.67;2.70;;;2.20;99.90;;;;;;5050342;28;20485;-67
2021/12/12 05:10:00;;;;;;;7.65;2.80;;;2.20;99.90;;;;;;5062043;28;20052;-68
2021/12/12 05:12:43;;;;;;;6.55;2.45;;;2.10;99.90;;;;;;5062703;28;20025;-68
2021/12/12 05:15:14;;;;;;;4.43;2.58;;;2.10;99.90;;;;;;5055910;28;20031;-68
2021/12/12 05:17:44;;;;;;;5.20;2.60;;;2.10;99.90;;;;;;5065070;28;20036;-68
2021/12/12 05:20:20;;;;;;;4.43;2.50;;;2.20;99.90;;;;;;5059565;28;20025;-67
2021/12/12 05:22:51;;;;;;;4.70;2.40;;;2.20;99.90;;;;;;5062185;28;20029;-68
2021/12/12 05:25:21;;;;;;;5.50;2.40;;;2.20;99.90;;;;;;5068327;28;20054;-68
2021/12/12 05:27:49;;;;;;;5.45;2.45;;;2.20;99.90;;;;;;5066952;28;20036;-68
2021/12/12 05:30:22;;;;;;;4.80;2.20;;;2.10;99.90;;;;;;5070272;28;20032;-68
2021/12/12 05:32:49;;;;;;;6.40;2.55;;;2.10;99.90;;;;;;5064029;28;20431;-68
2021/12/12 05:35:21;;;;;;;5.53;2.65;;;2.20;99.90;;;;;;5068817;28;20061;-68
2021/12/12 05:37:50;;;;;;;6.43;2.67;;;2.20;99.90;;;;;;5055655;28;20093;-67
2021/12/12 05:40:18;;;;;;;5.75;2.85;;;2.20;99.90;;;;;;5063922;28;20400;-68
2021/12/12 05:42:44;;;;;;;7.03;2.70;;;2.20;99.90;;;;;;5066176;28;20078;-68
2021/12/12 05:45:12;;;;;;;5.18;2.88;;;2.20;99.90;;;;;;5071360;28;20059;-68
2021/12/12 05:47:38;;;;;;;4.85;2.38;;;2.10;99.90;;;;;;5071200;28;20028;-67
2021/12/12 05:50:07;;;;;;;7.35;2.58;;;2.20;99.90;;;;;;5068801;28;20024;-67
2021/12/12 05:52:33;;;;;;;7.85;2.60;;;2.20;99.90;;;;;;5072478;28;20066;-68
2021/12/12 05:55:01;;;;;;;5.57;2.80;;;2.20;99.90;;;;;;5071187;28;20055;-68
2021/12/12 05:57:28;;;;;;;4.95;2.80;;;2.20;99.90;;;;;;5070214;28;20039;-68
2021/12/12 05:59:56;;;;;;;5.22;2.63;;;2.20;99.90;;;;;;5057015;28;20107;-68
2021/12/12 06:02:24;;;;;;;5.57;2.90;;;2.20;99.90;;;;;;5068948;28;20128;-67
2021/12/12 06:04:50;;;;;;;8.35;2.67;;;2.20;99.90;;;;;;5066319;28;20029;-69
2021/12/12 06:07:20;;;;;;;8.20;2.67;;;2.20;99.90;;;;;;5057895;28;20100;-67
2021/12/12 06:09:48;;;;;;;5.88;3.13;;;2.20;99.90;;;;;;5062416;28;20028;-67
2021/12/12 06:12:14;;;;;;;12.02;3.13;;;2.30;99.90;;;;;;5079154;22;20052;-69
2021/12/12 06:14:41;;;;;;;5.22;3.05;;;2.20;99.90;;;;;;5071371;28;20063;-70
2021/12/12 06:17:11;;;;;;;9.57;3.65;;;2.20;99.90;;;;;;5069456;28;20024;-70
2021/12/12 06:19:38;;;;;;;4.95;3.13;;;2.30;99.90;;;;;;5066674;28;20456;-70
2021/12/12 06:22:05;;;;;;;7.28;3.28;;;2.30;99.90;;;;;;5048589;28;20045;-70
2021/12/12 06:24:33;;;;;;;4.53;3.00;;;2.30;99.90;;;;;;5061195;28;20016;-70
2021/12/12 06:27:11;;;;;;;6.80;3.22;;;2.30;99.90;;;;;;5055837;28;20101;-69
2021/12/12 06:29:36;;;;;;;5.57;3.03;;;2.30;99.90;;;;;;5046738;28;20020;-70
2021/12/12 06:32:04;;;;;;;6.10;3.70;;;2.30;99.90;;;;;;5054303;28;20032;-70
2021/12/12 06:34:30;;;;;;;7.18;3.83;;;2.30;99.90;;;;;;5056182;28;20073;-71
2021/12/12 06:36:56;;;;;;;7.40;3.08;;;2.30;99.90;;;;;;5055719;28;20480;-71
2021/12/12 06:39:23;;;;;;;7.93;4.03;;;2.30;99.90;;;;;;5055506;28;20119;-71
2021/12/12 06:41:51;;;;;;;8.73;3.80;;;2.30;99.90;;;;;;5055286;28;20020;-71
2021/12/12 06:44:18;;;;;;;10.48;3.80;;;2.30;99.90;;;;;;5048980;28;22471;-71
2021/12/12 06:46:44;;;;;;;11.60;5.45;;;2.30;99.90;;;;;;5055516;28;20420;-71
2021/12/12 06:49:14;;;;;;;7.90;4.72;;;2.30;99.90;;;;;;5053133;28;20032;-71
2021/12/12 06:51:44;;;;;;;8.52;4.15;;;2.20;99.90;;;;;;5054573;28;20039;-71
2021/12/12 06:54:13;;;;;;;9.60;3.95;;;2.20;99.90;;;;;;5054989;28;20506;-71
2021/12/12 06:56:38;;;;;;;8.55;4.40;;;2.20;99.90;;;;;;5054768;28;20082;-71
2021/12/12 06:59:05;;;;;;;5.30;3.90;;;2.20;99.90;;;;;;5053566;28;20033;-71
2021/12/12 07:01:33;;;;;;;7.22;4.30;;;2.20;99.90;;;;;;5055195;28;20027;-71
2021/12/12 07:04:01;;;;;;;13.05;8.13;;;2.20;99.90;;;;;;5054192;28;20048;-71
2021/12/12 07:06:28;;;;;;;8.90;4.53;;;2.20;99.90;;;;;;5071460;28;20107;-70
2021/12/12 07:08:58;;;;;;;8.63;4.32;;;2.20;99.90;;;;;;5052352;28;20435;-71
2021/12/12 07:11:27;;;;;;;9.35;4.25;;;2.10;99.90;;;;;;5055383;28;20064;-71
2021/12/12 07:13:54;;;;;;;8.02;4.25;;;2.10;99.90;;;;;;5054119;28;20040;-71
2021/12/12 07:16:21;;;;;;;10.65;5.10;;;2.20;99.90;;;;;;5054829;28;20062;-71
2021/12/12 07:18:48;;;;;;;6.72;4.50;;;2.10;99.90;;;;;;5053383;28;20044;-71
2021/12/12 07:21:15;;;;;;;9.43;3.88;;;2.10;99.90;;;;;;5054813;28;20465;-71
2021/12/12 07:23:43;;;;;;;5.80;4.25;;;2.10;99.90;;;;;;5055675;28;20115;-71
2021/12/12 07:26:10;;;;;;;9.05;4.60;;;2.10;99.90;;;;;;5052231;28;20107;-71
2021/12/12 07:28:38;;;;;;;5.72;4.15;;;2.10;99.90;;;;;;5050887;28;20029;-71
2021/12/12 07:31:07;;;;;;;9.93;4.30;;;2.00;99.90;;;;;;5054891;28;20424;-71
2021/12/12 07:33:35;;;;;;;10.43;6.13;;;2.00;99.90;;;;;;5054178;28;20024;-71
2021/12/12 07:36:04;;;;;;;7.90;5.15;;;2.10;99.90;;;;;;5054502;28;20184;-71
2021/12/12 07:38:31;;;;;;;12.40;4.55;;;2.00;99.90;;;;;;5052288;28;20021;-71
2021/12/12 07:40:57;;;;;;;7.88;4.30;;;2.00;99.90;;;;;;5054230;28;20024;-71
2021/12/12 07:43:23;;;;;;;8.90;4.28;;;2.00;99.90;;;;;;5053781;28;20469;-71
2021/12/12 07:45:49;;;;;;;8.95;4.55;;;2.00;99.90;;;;;;5054343;28;20033;-71
2021/12/12 07:48:15;;;;;;;6.80;4.10;;;2.00;99.90;;;;;;5054220;28;20411;-71
2021/12/12 07:50:44;;;;;;;6.65;5.30;;;2.00;99.90;;;;;;5054273;28;20028;-71
2021/12/12 07:53:10;;;;;;;9.45;4.90;;;2.00;99.90;;;;;;5052718;28;20024;-71
2021/12/12 07:55:37;;;;;;;8.68;4.55;;;2.00;99.90;;;;;;5053925;28;20032;-72
2021/12/12 07:58:09;;;;;;;9.63;4.57;;;2.00;99.90;;;;;;5052314;28;20089;-70
2021/12/12 08:00:36;;;;;;;6.50;4.10;;;2.00;99.90;;;;;;5046843;28;20022;-71
2021/12/12 08:03:03;;;;;;;8.30;4.70;;;2.00;99.90;;;;;;5054018;28;20032;-71
2021/12/12 08:05:31;;;;;;;10.30;4.70;;;2.00;99.90;;;;;;5046183;28;20025;-71
2021/12/12 08:07:59;;;;;;;7.85;4.50;;;2.00;99.90;;;;;;5044903;28;20084;-71
2021/12/12 08:10:26;;;;;;;6.70;4.47;;;2.00;99.90;;;;;;5043630;28;20025;-71
2021/12/12 08:12:52;;;;;;;7.40;4.50;;;2.00;99.90;;;;;;5047111;28;20033;-71
2021/12/12 08:15:19;;;;;;;7.00;4.93;;;2.10;99.90;;;;;;5052633;28;20396;-71
2021/12/12 08:17:45;;;;;;;9.05;4.88;;;2.10;99.90;;;;;;5052561;28;20438;-71
2021/12/12 08:20:13;;;;;;;7.10;4.80;;;2.10;99.90;;;;;;5054259;28;20449;-70
2021/12/12 08:22:41;;;;;;;8.25;4.15;;;2.10;99.90;;;;;;5054285;28;20027;-70
2021/12/12 08:25:09;;;;;;;7.90;4.85;;;2.10;99.90;;;;;;5063622;28;20028;-70
2021/12/12 08:27:36;;;;;;;11.07;5.95;;;2.10;99.90;;;;;;5058945;28;20043;-70
2021/12/12 08:30:05;;;;;;;8.55;4.90;;;2.20;99.90;;;;;;5045366;28;20810;-71
2021/12/12 08:32:30;;;;;;;8.07;5.10;;;2.20;99.90;;;;;;5053296;28;20029;-70
2021/12/12 08:34:56;;;;;;;6.78;4.60;;;2.20;99.90;;;;;;5053922;28;20024;-70
2021/12/12 08:37:22;;;;;;;7.05;4.80;;;2.20;99.90;;;;;;5051679;28;20031;-71
2021/12/12 08:39:48;;;;;;;7.85;5.13;;;2.20;99.90;;;;;;5052758;28;20480;-71
2021/12/12 08:42:14;;;;;;;9.32;5.05;;;2.20;99.90;;;;;;5069328;28;20392;-71
2021/12/12 08:44:40;;;;;;;8.80;5.00;;;2.30;99.90;;;;;;5053086;28;20032;-71
2021/12/12 08:47:09;;;;;;;8.93;5.45;;;2.40;99.90;;;;;;5053784;28;20024;-70
2021/12/12 08:49:40;;;;;;;7.30;4.40;;;2.40;99.90;;;;;;5070611;28;20020;-70
2021/12/12 08:52:13;;;;;;;6.65;4.45;;;2.50;99.90;;;;;;5049178;28;20418;-71
2021/12/12 08:54:41;;;;;;;6.55;4.13;;;2.60;99.90;;;;;;5052744;28;20683;-71
2021/12/12 08:57:23;;;;;;;10.20;4.30;;;2.70;99.90;;;;;;5051416;28;20025;-70
2021/12/12 08:59:52;;;;;;;7.18;4.78;;;2.70;99.90;;;;;;5052484;28;20024;-70
2021/12/12 09:02:20;;;;;;;5.75;4.20;;;2.80;99.90;;;;;;5070592;28;20035;-69
2021/12/12 09:04:51;;;;;;;8.18;4.47;;;2.80;99.90;;;;;;5051519;28;20039;-70
2021/12/12 09:07:31;;;;;;;7.55;4.88;;;2.90;99.90;;;;;;5048666;28;20063;-68
2021/12/12 09:10:16;;;;;;;5.15;4.38;;;2.90;99.90;;;;;;5053546;28;20063;-70
2021/12/12 09:13:05;;;;;;;7.93;4.45;;;2.90;99.90;;;;;;5051750;28;20119;-70
2021/12/12 09:15:43;;;;;;;5.50;4.10;;;2.90;99.90;;;;;;5052225;28;20035;-70
2021/12/12 09:18:36;;;;;;;5.80;4.18;;;2.90;99.90;;;;;;5052084;28;20028;-70
2021/12/12 09:21:24;;;;;;;9.40;4.78;;;3.00;99.90;;;;;;5061945;28;20021;-70
2021/12/12 09:24:11;;;;;;;9.35;4.80;;;3.00;99.90;;;;;;5051081;28;20029;-70
2021/12/12 09:26:43;;;;;;;7.68;4.47;;;3.00;99.90;;;;;;5053206;28;20021;-70
2021/12/12 09:29:29;;;;;;;10.50;6.55;;;3.00;99.90;;;;;;5052006;28;20097;-69
2021/12/12 09:32:05;;;;;;;9.60;6.25;;;3.00;99.90;;;;;;5049832;28;20021;-69
2021/12/12 09:34:38;;;;;;;8.43;4.93;;;3.00;99.90;;;;;;5053361;28;20049;-70
2021/12/12 09:37:31;;;;;;;7.72;4.72;;;3.10;99.90;;;;;;5050845;28;20487;-70
2021/12/12 09:40:06;;;;;;;;;;;3.10;99.90;;;;;;5069693;28;20055;-70
2021/12/12 09:42:41;;;;;;;7.90;4.10;;;3.20;99.90;;;;;;5046513;28;19908;-70
2021/12/12 09:45:31;;;;;;;6.80;4.80;;;3.20;99.90;;;;;;5052563;28;20668;-71
2021/12/12 09:51:15;;;;;;;6.95;4.47;;;3.30;99.90;;;;;;5067632;28;20404;-71
2021/12/12 09:53:47;;;;;;;5.93;4.57;;;3.30;99.90;;;;;;5047164;28;20025;-69
2021/12/12 09:56:31;;;;;;;6.68;4.90;;;3.40;99.90;;;;;;5066234;28;20054;-70
2021/12/12 09:59:06;;;;;;;8.15;4.95;;;3.40;99.90;;;;;;5050661;28;20056;-70
2021/12/12 10:01:46;;;;;;;7.43;4.47;;;3.50;99.90;;;;;;5051726;28;20024;-74
2021/12/12 10:04:23;;;;;;;6.65;4.30;;;3.50;99.90;;;;;;5048691;28;20097;-71
2021/12/12 10:07:01;;;;;;;6.15;3.85;;;3.60;99.90;;;;;;5049646;28;20032;-70
2021/12/12 10:09:57;;;;;;;7.28;4.55;;;3.60;99.90;;;;;;5051130;28;20020;-70
2021/12/12 10:12:27;;;;;;;6.43;4.53;;;3.70;99.90;;;;;;5050689;28;20555;-72
2021/12/12 10:15:04;;;;;;;6.97;4.70;;;3.70;99.90;;;;;;5053458;28;20169;-71
2021/12/12 10:17:44;;;;;;;6.97;4.38;;;3.80;99.90;;;;;;5065224;28;20504;-71
2021/12/12 10:20:37;;;;;;;6.22;4.20;;;3.80;99.90;;;;;;5060814;28;20028;-71
2021/12/12 10:23:46;;;;;;;9.48;4.07;;;3.80;99.90;;;;;;5054988;28;20095;-72
2021/12/12 10:26:29;;;;;;;6.32;4.35;;;3.80;99.90;;;;;;5062047;28;20032;-71
2021/12/12 10:29:06;;;;;;;5.78;4.25;;;3.90;99.90;;;;;;5053687;28;20559;-71
2021/12/12 10:31:53;;;;;;;6.55;4.10;;;3.90;99.90;;;;;;5053475;28;20035;-70
2021/12/12 10:34:30;;;;;;;5.32;3.95;;;3.90;99.90;;;;;;5055764;28;20039;-72
2021/12/12 10:37:07;;;;;;;6.00;3.85;;;4.00;99.90;;;;;;5055180;28;20109;-69
2021/12/12 10:39:45;;;;;;;5.72;3.88;;;4.00;99.90;;;;;;5056073;28;20036;-70
2021/12/12 10:42:19;;;;;;;5.50;3.30;;;4.00;99.90;;;;;;5055337;28;20021;-70
2021/12/12 10:44:57;;;;;;;6.68;3.65;;;4.10;99.90;;;;;;5054466;28;20063;-70
2021/12/12 10:47:37;;;;;;;7.80;4.32;;;4.10;99.90;;;;;;5053315;28;20035;-70
2021/12/12 10:50:10;;;;;;;5.75;4.07;;;4.10;99.90;;;;;;5055323;28;20017;-69
2021/12/12 10:53:02;;;;;;;10.13;5.85;;;4.10;99.90;;;;;;5050391;28;20021;-72
2021/12/12 10:55:43;;;;;;;6.00;4.68;;;4.10;99.90;;;;;;5053393;28;20043;-71
2021/12/12 10:58:21;;;;;;;6.05;3.95;;;4.20;99.90;;;;;;5054959;28;20119;-70
2021/12/12 11:00:51;;;;;;;5.57;2.90;;;4.20;99.90;;;;;;5053918;28;20055;-70
2021/12/12 11:03:33;;;;;;;4.45;3.13;;;4.20;99.90;;;;;;5069411;28;20028;-70
2021/12/12 11:06:05;;;;;;;4.28;3.10;;;4.30;99.90;;;;;;5055427;28;20108;-70
2021/12/12 11:08:46;;;;;;;5.55;4.00;;;4.40;99.90;;;;;;5059862;28;20055;-72
2021/12/12 11:11:15;;;;;;;5.95;4.13;;;4.30;99.90;;;;;;5054076;28;20032;-70
2021/12/12 11:13:49;;;;;;;4.22;3.13;;;4.40;99.90;;;;;;5059162;28;20078;-71
2021/12/12 11:16:47;;;;;;;3.00;2.63;;;4.40;99.90;;;;;;5047990;28;20024;-69
2021/12/12 11:19:28;;;;;;;4.22;3.20;;;4.40;99.90;;;;;;5050588;28;20039;-71
2021/12/12 11:22:23;;;;;;;6.00;3.45;;;4.40;99.90;;;;;;5045127;28;20392;-70
2021/12/12 11:24:57;;;;;;;4.22;3.00;;;4.40;99.90;;;;;;5056273;28;20025;-70
2021/12/12 11:27:40;;;;;;;4.25;3.20;;;4.50;99.90;;;;;;5054376;28;20016;-70
2021/12/12 11:30:21;;;;;;;3.47;2.33;;;4.50;99.90;;;;;;5068498;28;20036;-71
2021/12/12 11:32:50;;;;;;;3.47;2.20;;;4.50;99.90;;;;;;5036137;28;20083;-70
2021/12/12 11:35:19;;;;;;;3.92;2.72;;;4.50;99.90;;;;;;5046642;28;20028;-71
2021/12/12 11:38:00;;;;;;;4.68;3.20;;;4.40;99.90;;;;;;5065189;28;20032;-70
2021/12/12 11:41:10;;;;;;;3.25;2.42;;;4.40;99.90;;;;;;5056628;28;20546;-69
2021/12/12 11:44:12;;;;;;;3.05;2.58;;;4.40;99.90;;;;;;5000770;28;20502;-70
2021/12/12 11:46:56;;;;;;;2.65;2.33;;;4.40;99.90;;;;;;5008320;28;20034;-71
2021/12/12 11:49:31;;;;;;;3.47;2.50;;;4.30;99.90;;;;;;5028013;28;20357;-71
2021/12/12 11:52:18;;;;;;;3.67;2.58;;;4.30;99.90;;;;;;5061960;28;20481;-70
2021/12/12 11:55:03;;;;;;;4.13;2.50;;;4.40;99.90;;;;;;5033695;28;20025;-71
2021/12/12 11:57:33;;;;;;;3.97;2.33;;;4.40;99.90;;;;;;5042653;28;20035;-71
2021/12/12 12:00:15;;;;;;;2.63;2.42;;;4.40;99.90;;;;;;5066972;28;20086;-69
2021/12/12 12:03:05;;;;;;;5.07;2.63;;;4.50;99.90;;;;;;5056529;28;20033;-70
2021/12/12 12:06:03;;;;;;;3.70;2.80;;;4.50;99.90;;;;;;5052746;28;20505;-71
2021/12/12 12:08:50;;;;;;;3.17;2.63;;;4.60;99.90;;;;;;5046118;28;20119;-71
2021/12/12 12:11:27;;;;;;;2.83;2.20;;;4.60;99.90;;;;;;5049213;28;20029;-70
2021/12/12 12:14:06;;;;;;;2.40;2.20;;;4.60;99.90;;;;;;5060867;28;20747;-71
2021/12/12 12:16:35;;;;;;;7.70;3.33;;;4.70;99.90;;;;;;5044812;28;20039;-70
2021/12/12 12:19:39;;;;;;;4.15;2.72;;;4.70;99.90;;;;;;5059123;28;20094;-71
2021/12/12 12:22:08;;;;;;;3.90;2.50;;;4.70;99.90;;;;;;5059847;28;20111;-71
2021/12/12 12:24:44;;;;;;;2.97;2.63;;;4.80;99.90;;;;;;5068188;28;20061;-71
2021/12/12 12:27:17;;;;;;;5.07;2.47;;;4.70;99.90;;;;;;5054911;28;20028;-69
2021/12/12 12:30:02;;;;;;;3.45;2.28;;;4.70;99.90;;;;;;5043435;28;20025;-71
2021/12/12 12:32:55;;;;;;;3.65;2.95;;;4.70;99.90;;;;;;5046139;28;20033;-71
2021/12/12 12:35:43;;;;;;;3.03;2.67;;;4.70;99.90;;;;;;5050632;28;20104;-70
2021/12/12 12:38:46;;;;;;;2.88;2.55;;;4.70;99.90;;;;;;5047957;28;20028;-71
2021/12/12 12:41:47;;;;;;;3.35;2.33;;;4.70;99.90;;;;;;5060938;28;20492;-71
2021/12/12 12:44:43;;;;;;;3.20;2.30;;;4.70;99.90;;;;;;5069181;28;20093;-70
2021/12/12 12:47:15;;;;;;;3.80;2.33;;;4.70;99.90;;;;;;5053137;28;20020;-71
2021/12/12 12:50:07;;;;;;;3.72;2.50;;;4.80;99.90;;;;;;5044821;28;20024;-71
2021/12/12 12:52:39;;;;;;;4.03;2.33;;;4.70;99.90;;;;;;5043450;28;20040;-72
2021/12/12 12:55:59;;;;;;;4.50;3.60;;;4.80;99.90;;;;;;5050219;28;20111;-70
2021/12/12 12:58:43;;;;;;;4.70;2.92;;;4.80;99.90;;;;;;4953440;28;20726;-72
2021/12/12 13:01:33;;;;;;;2.97;2.70;;;4.70;99.90;;;;;;5023964;28;20045;-72
2021/12/12 13:04:01;;;;;;;5.57;3.45;;;4.70;99.90;;;;;;5048065;28;20033;-71
2021/12/12 13:06:55;;;;;;;5.25;2.70;;;4.70;99.90;;;;;;5062027;28;20033;-72
2021/12/12 13:09:27;;;;;;;5.38;2.53;;;4.70;99.90;;;;;;5049534;28;20639;-70
2021/12/12 13:12:23;;;;;;;6.72;2.88;;;4.80;99.90;;;;;;5048371;28;20485;-72
2021/12/12 13:14:57;;;;;;;4.30;2.70;;;4.80;99.90;;;;;;5067060;28;20032;-73
2021/12/12 13:18:06;;;;;;;3.53;2.88;;;4.80;99.90;;;;;;5048421;28;20055;-70
2021/12/12 13:20:45;;;;;;;5.05;2.85;;;4.80;99.90;;;;;;5049393;28;20032;-70
2021/12/12 13:23:20;;;;;;;3.63;2.85;;;4.80;99.90;;;;;;5050989;28;20059;-71
2021/12/12 13:25:55;;;;;;;5.20;3.10;;;4.80;99.90;;;;;;5065118;28;20039;-69
2021/12/12 13:28:34;;;;;;;4.68;2.75;;;4.80;99.90;;;;;;5049364;28;20439;-72
2021/12/12 13:31:36;;;;;;;4.93;3.03;;;4.80;99.90;;;;;;5049967;28;20392;-71
2021/12/12 13:34:19;;;;;;;4.57;2.92;;;4.80;99.90;;;;;;5045462;28;20032;-70
2021/12/12 13:37:04;;;;;;;4.35;2.80;;;4.70;99.90;;;;;;5045296;28;20703;-69
2021/12/12 13:40:07;;;;;;;3.60;3.03;;;4.70;99.90;;;;;;5040946;28;20119;-70
2021/12/12 13:42:40;;;;;;;4.70;2.95;;;4.70;99.90;;;;;;5041626;28;20034;-70
2021/12/12 13:45:28;;;;;;;12.73;6.28;;;4.70;99.90;;;;;;5039008;28;20020;-70
2021/12/12 13:48:35;;;;;;;10.52;5.78;;;4.70;99.90;;;;;;5048768;28;20028;-69
2021/12/12 13:51:23;;;;;;;7.75;4.45;;;4.70;99.90;;;;;;5027309;28;20125;-70